1927 NOT_NAMED (1927276N13143)


IBTrACS version v04r00. Visit IBTrACS website for data access.
Please direct all questions to the IBTrACS Q and A forum

Storm track - Intensity - Wind Radii - Intensity Data - Source Data - All data

Summary Information

Storm ID 1927276N13143
Start Oct 2 22Z
Landfall Oct 5 21Z, Oct 6 09Z
End Oct 7 22Z
ATCF IDs
Track status Best track data.

Storm track plot

Map of storm track

Intensity plots

No Intensity information for this storm


Radial wind information

No radial wind information for this storm


Position and Intensity Table

BASIN ISO_TIME_________ NATURE LAT LON
degrees north degrees east
WP 1927-10-02 22:00:00 NR 12.60 142.80
WP 1927-10-03 00:00:00 NR 12.65 142.32
WP 03:00:00 NR 12.71 141.60
WP 06:00:00 NR 12.76 140.87
WP 09:00:00 NR 12.79 140.14
WP 10:00:00 NR 12.80 139.90
WP 12:00:00 NR 12.80 139.41
WP 15:00:00 NR 12.79 138.67
WP 18:00:00 NR 12.76 137.92
WP 21:00:00 NR 12.72 137.16
WP 22:00:00 NR 12.70 136.90
WP 1927-10-04 00:00:00 NR 12.67 136.38
WP 03:00:00 NR 12.61 135.60
WP 06:00:00 NR 12.56 134.79
WP 09:00:00 NR 12.51 133.98
WP 10:00:00 NR 12.50 133.70
WP 12:00:00 NR 12.49 133.13
WP 15:00:00 NR 12.48 132.27
WP 18:00:00 NR 12.49 131.40
WP 21:00:00 NR 12.50 130.57
WP 22:00:00 NR 12.50 130.30
WP 1927-10-05 00:00:00 NR 12.50 129.79
WP 03:00:00 NR 12.51 129.05
WP 06:00:00 NR 12.51 128.33
WP 09:00:00 NR 12.50 127.63
WP 10:00:00 NR 12.50 127.40
WP 12:00:00 NR 12.49 126.95
WP 15:00:00 NR 12.46 126.29
WP 18:00:00 NR 12.43 125.61
WP 21:00:00 NR 12.41 124.87
WP 22:00:00 NR 12.40 124.60
WP 1927-10-06 00:00:00 NR 12.35 124.01
WP 03:00:00 NR 12.29 123.07
WP 06:00:00 NR 12.27 122.09
WP 09:00:00 NR 12.35 121.11
WP 10:00:00 NR 12.40 120.80
WP 12:00:00 NR 12.60 120.19
WP 15:00:00 NR 13.00 119.30
WP 18:00:00 NR 13.45 118.44
WP 21:00:00 NR 13.88 117.65
WP 22:00:00 NR 14.00 117.40
WP 1927-10-07 00:00:00 NR 14.19 116.95
WP 03:00:00 NR 14.43 116.33
WP 06:00:00 NR 14.59 115.73
WP 09:00:00 NR 14.69 115.12
WP 10:00:00 NR 14.70 114.90
WP 12:00:00 NR 14.70 114.44
WP 15:00:00 NR 14.66 113.69
WP 18:00:00 NR 14.56 112.90
WP 21:00:00 NR 14.44 112.08
WP 22:00:00 NR 14.40 111.80

Source Information

Agency Information
USA
TOKYO
CMA
HKO
NEWDELHI
REUNION
BOM
NADI
WELLINGTON
DS824
TD9636 cons_worldwide_trop_cyclone_18710101-19891231-003:Line=7908
TD9635
NEUMANN
MLC

All available IBTrACS Data

SEASON BASIN SUBBASIN ISO_TIME_________ NATURE LAT LON DIST2LAND LANDFALL IFLAG USA SSHS TD9636 LAT TD9636 LON TD9636 STAGE STORM SPEED STORM DIR
Year degrees north degrees east km km 1 degrees north degrees east kts degrees
1927 WP MM 1927-10-02 22:00:00 NR 12.60 142.80 1670 1654 __________O___ -1 12.60 142.80 7 14 276
1927 WP MM 1927-10-03 00:00:00 NR 12.65 142.32 1654 1638 __________P___ -1 12.65 142.32 7 14 275
1927 WP MM 03:00:00 NR 12.71 141.60 1638 1617 __________P___ -1 12.71 141.60 7 14 275
1927 WP MM 06:00:00 NR 12.76 140.87 1620 1569 __________P___ -1 12.76 140.87 7 14 273
1927 WP MM 09:00:00 NR 12.79 140.14 1569 1548 __________P___ -1 12.79 140.14 7 14 272
1927 WP MM 10:00:00 NR 12.80 139.90 1548 1494 __________O___ -1 12.80 139.90 7 14 271
1927 WP MM 12:00:00 NR 12.80 139.41 1494 1418 __________P___ -1 12.80 139.41 7 14 269
1927 WP MM 15:00:00 NR 12.79 138.67 1418 1332 __________P___ -1 12.79 138.67 7 15 268
1927 WP MM 18:00:00 NR 12.76 137.92 1332 1255 __________P___ -1 12.76 137.92 7 15 267
1927 WP MM 21:00:00 NR 12.72 137.16 1255 1223 __________P___ -1 12.72 137.16 7 15 267
1927 WP MM 22:00:00 NR 12.70 136.90 1223 1169 __________O___ -1 12.70 136.90 7 15 266
1927 WP MM 1927-10-04 00:00:00 NR 12.67 136.38 1169 1082 __________P___ -1 12.67 136.38 7 15 266
1927 WP MM 03:00:00 NR 12.61 135.60 1082 996 __________P___ -1 12.61 135.60 7 16 266
1927 WP MM 06:00:00 NR 12.56 134.79 996 908 __________P___ -1 12.56 134.79 7 16 266
1927 WP MM 09:00:00 NR 12.51 133.98 908 876 __________P___ -1 12.51 133.98 7 16 267
1927 WP MM 10:00:00 NR 12.50 133.70 876 812 __________O___ -1 12.50 133.70 7 17 268
1927 WP MM 12:00:00 NR 12.49 133.13 812 727 __________P___ -1 12.49 133.13 7 17 269
1927 WP MM 15:00:00 NR 12.48 132.27 727 632 __________P___ -1 12.48 132.27 7 17 270
1927 WP MM 18:00:00 NR 12.49 131.40 632 549 __________P___ -1 12.49 131.40 7 17 270
1927 WP MM 21:00:00 NR 12.50 130.57 549 518 __________P___ -1 12.50 130.57 7 16 271
1927 WP MM 22:00:00 NR 12.50 130.30 518 467 __________O___ -1 12.50 130.30 3 15 270
1927 WP MM 1927-10-05 00:00:00 NR 12.50 129.79 467 381 __________P___ -1 12.50 129.79 3 15 270
1927 WP MM 03:00:00 NR 12.51 129.05 381 306 __________P___ -1 12.51 129.05 3 14 270
1927 WP MM 06:00:00 NR 12.51 128.33 306 230 __________P___ -1 12.51 128.33 3 14 270
1927 WP MM 09:00:00 NR 12.50 127.63 230 209 __________P___ -1 12.50 127.63 3 14 270
1927 WP MM 10:00:00 NR 12.50 127.40 209 166 __________O___ -1 12.50 127.40 4 13 268
1927 WP MM 12:00:00 NR 12.49 126.95 166 93 __________P___ -1 12.49 126.95 4 13 268
1927 WP MM 15:00:00 NR 12.46 126.29 93 24 __________P___ -1 12.46 126.29 4 13 268
1927 WP MM 18:00:00 NR 12.43 125.61 24 0 __________P___ -1 12.43 125.61 4 14 268
1927 WP MM 21:00:00 NR 12.41 124.87 0 0 __________P___ -1 12.41 124.87 4 15 268
1927 WP MM 22:00:00 NR 12.40 124.60 0 0 __________O___ -1 12.40 124.60 4 17 266
1927 WP MM 1927-10-06 00:00:00 NR 12.35 124.01 15 0 __________P___ -1 12.35 124.01 4 18 266
1927 WP MM 03:00:00 NR 12.29 123.07 15 24 __________P___ -1 12.29 123.07 4 19 267
1927 WP MM 06:00:00 NR 12.27 122.09 55 0 __________P___ -1 12.27 122.09 4 19 272
1927 WP MM 09:00:00 NR 12.35 121.11 0 0 __________P___ -1 12.35 121.11 4 19 276
1927 WP MM 10:00:00 NR 12.40 120.80 21 21 __________O___ -1 12.40 120.80 4 19 286
1927 WP MM 12:00:00 NR 12.60 120.19 66 76 __________P___ -1 12.60 120.19 4 19 292
1927 WP MM 15:00:00 NR 13.00 119.30 117 127 __________P___ -1 13.00 119.30 4 19 297
1927 WP MM 18:00:00 NR 13.45 118.44 205 205 __________P___ -1 13.45 118.44 4 18 299
1927 WP MM 21:00:00 NR 13.88 117.65 287 287 __________P___ -1 13.88 117.65 4 17 298
1927 WP MM 22:00:00 NR 14.00 117.40 304 304 __________O___ -1 14.00 117.40 4 15 295
1927 WP MM 1927-10-07 00:00:00 NR 14.19 116.95 349 349 __________P___ -1 14.19 116.95 4 14 292
1927 WP MM 03:00:00 NR 14.43 116.33 402 402 __________P___ -1 14.43 116.33 4 12 289
1927 WP MM 06:00:00 NR 14.59 115.73 456 456 __________P___ -1 14.59 115.73 4 12 282
1927 WP MM 09:00:00 NR 14.69 115.12 514 514 __________P___ -1 14.69 115.12 4 12 278
1927 WP MM 10:00:00 NR 14.70 114.90 535 535 __________O___ -1 14.70 114.90 4 13 272
1927 WP MM 12:00:00 NR 14.70 114.44 557 482 __________P___ -1 14.70 114.44 4 14 268
1927 WP MM 15:00:00 NR 14.66 113.69 482 396 __________P___ -1 14.66 113.69 4 15 265
1927 WP MM 18:00:00 NR 14.56 112.90 396 307 __________P___ -1 14.56 112.90 4 16 262
1927 WP MM 21:00:00 NR 14.44 112.08 307 275 __________P___ -1 14.44 112.08 4 16 261
1927 WP MM 22:00:00 NR 14.40 111.80 275 __________O___ -1 14.40 111.80 4 16 261